Time;durP1;ratioP1;P1;durP2;ratioP2;P2;SDS_P1;SDS_P2;PMS_P1;PMS_P2;Temp;Humidity;BMP_temperature;BMP_pressure;BME280_temperature;BME280_humidity;BME280_pressure;Samples;Min_cycle;Max_cycle;Signal;HPM_P1;HPM_P2
2022/06/27 00:00:26;;;;;;;7.90;3.83;;;22.80;99.90;;;;;;2604313;46;20786;31
2022/06/27 00:02:58;;;;;;;6.60;3.90;;;22.80;99.90;;;;;;2604813;46;20898;31
2022/06/27 00:05:33;;;;;;;7.22;4.22;;;22.70;99.90;;;;;;2604629;46;20938;31
2022/06/27 00:08:07;;;;;;;5.17;3.67;;;22.60;99.90;;;;;;2604199;46;20819;31
2022/06/27 00:10:39;;;;;;;5.30;4.03;;;22.50;99.90;;;;;;2585803;54;20969;31
2022/06/27 00:13:14;;;;;;;8.40;4.10;;;22.50;99.90;;;;;;2683389;39;20372;31
2022/06/27 00:15:50;;;;;;;6.45;3.85;;;22.40;99.90;;;;;;2604123;46;20821;31
2022/06/27 00:18:32;;;;;;;4.85;3.60;;;22.50;99.90;;;;;;2604355;46;20906;31
2022/06/27 00:21:06;;;;;;;5.65;4.93;;;22.40;99.90;;;;;;2596330;46;20738;31
2022/06/27 00:23:39;;;;;;;6.30;4.00;;;22.40;99.90;;;;;;2604362;46;20034;31
2022/06/27 00:26:14;;;;;;;5.27;4.30;;;22.30;99.90;;;;;;2585576;54;20089;31
2022/06/27 00:28:47;;;;;;;6.27;4.33;;;22.20;99.90;;;;;;2585730;54;20870;31
2022/06/27 00:31:24;;;;;;;4.70;4.28;;;22.20;99.90;;;;;;2604568;46;21028;31
2022/06/27 00:33:56;;;;;;;9.68;4.22;;;22.20;99.90;;;;;;2604805;46;20053;31
2022/06/27 00:36:31;;;;;;;5.10;3.72;;;22.10;99.90;;;;;;2585759;54;20031;31
2022/06/27 00:39:06;;;;;;;5.10;3.90;;;22.00;99.90;;;;;;2604582;46;20037;31
2022/06/27 00:41:39;;;;;;;7.53;4.28;;;22.00;99.90;;;;;;2586136;54;20993;31
2022/06/27 00:44:11;;;;;;;4.87;3.97;;;22.00;99.90;;;;;;2604159;46;20831;31
2022/06/27 00:46:48;;;;;;;6.35;4.25;;;21.90;99.90;;;;;;2604285;46;21457;31
2022/06/27 00:49:20;;;;;;;6.00;3.80;;;21.90;99.90;;;;;;2604125;46;20109;31
2022/06/27 00:51:54;;;;;;;6.68;4.13;;;21.80;99.90;;;;;;2683638;39;21407;31
2022/06/27 00:54:28;;;;;;;8.85;4.72;;;21.80;99.90;;;;;;2585741;54;20879;31
2022/06/27 00:57:00;;;;;;;5.78;4.32;;;21.80;99.90;;;;;;2684025;39;22402;31
2022/06/27 00:59:35;;;;;;;5.03;3.97;;;21.70;99.90;;;;;;2754286;31;20502;31
2022/06/27 01:02:09;;;;;;;5.27;3.97;;;21.70;99.90;;;;;;2604350;46;22484;31
2022/06/27 01:04:43;;;;;;;5.63;4.63;;;21.60;99.90;;;;;;2585609;54;20903;31
2022/06/27 01:07:15;;;;;;;8.35;4.70;;;21.50;99.90;;;;;;2585704;54;21289;31
2022/06/27 01:09:50;;;;;;;6.90;4.55;;;21.50;99.90;;;;;;2585353;54;20022;31
2022/06/27 01:12:23;;;;;;;7.90;4.67;;;21.40;99.90;;;;;;2702111;39;21382;31
2022/06/27 01:14:57;;;;;;;7.15;3.70;;;21.40;99.90;;;;;;2754051;31;21580;31
2022/06/27 01:17:32;;;;;;;6.80;4.23;;;21.30;99.90;;;;;;2604361;46;22478;31
2022/06/27 01:20:05;;;;;;;4.90;4.40;;;21.30;99.90;;;;;;2585795;54;20581;31
2022/06/27 01:22:41;;;;;;;6.45;4.75;;;21.20;99.90;;;;;;2604160;46;20082;31
2022/06/27 01:25:15;;;;;;;6.35;4.40;;;21.20;99.90;;;;;;2585832;54;21157;31
2022/06/27 01:27:47;;;;;;;6.22;4.63;;;21.10;99.90;;;;;;2588363;46;21215;31
2022/06/27 01:30:24;;;;;;;7.20;4.45;;;21.10;99.90;;;;;;2585694;54;20971;31
2022/06/27 01:32:57;;;;;;;6.63;5.07;;;21.00;99.90;;;;;;2604003;46;21145;31
2022/06/27 01:35:32;;;;;;;6.38;4.80;;;20.90;99.90;;;;;;2604385;46;21005;31
2022/06/27 01:38:09;;;;;;;5.90;4.43;;;20.90;99.90;;;;;;2585483;54;20891;31
2022/06/27 01:40:42;;;;;;;5.40;4.17;;;20.80;99.90;;;;;;2585469;54;20886;31
2022/06/27 01:43:16;;;;;;;8.10;4.80;;;20.80;99.90;;;;;;2585453;54;21013;31
2022/06/27 01:45:49;;;;;;;5.47;4.50;;;20.80;99.90;;;;;;2683247;39;20527;31
2022/06/27 01:48:21;;;;;;;5.20;4.47;;;20.80;99.90;;;;;;2585539;54;20235;31
2022/06/27 01:50:55;;;;;;;8.70;4.03;;;20.70;99.90;;;;;;2585692;54;20922;31
2022/06/27 01:53:32;;;;;;;5.40;4.20;;;20.60;99.90;;;;;;2603691;46;20026;31
2022/06/27 01:56:07;;;;;;;4.35;3.95;;;20.70;99.90;;;;;;2585232;54;20313;31
2022/06/27 01:58:42;;;;;;;5.32;4.10;;;20.80;99.90;;;;;;2683445;39;20396;31
2022/06/27 02:01:15;;;;;;;7.20;4.40;;;20.70;99.90;;;;;;2585679;54;21095;31
2022/06/27 02:03:49;;;;;;;4.90;4.38;;;20.80;99.90;;;;;;2603986;46;20046;31
2022/06/27 02:06:23;;;;;;;5.47;4.60;;;20.70;99.90;;;;;;2585594;54;20026;31
2022/06/27 02:08:58;;;;;;;8.80;4.90;;;20.70;99.90;;;;;;2585778;54;22362;31
2022/06/27 02:11:33;;;;;;;6.15;4.57;;;20.60;99.90;;;;;;2683121;39;21380;31
2022/06/27 02:14:06;;;;;;;6.35;4.30;;;20.60;99.90;;;;;;2603817;46;20121;31
2022/06/27 02:16:44;;;;;;;5.73;4.87;;;20.50;99.90;;;;;;2585513;54;20102;31
2022/06/27 02:19:19;;;;;;;5.50;5.00;;;20.60;99.90;;;;;;2603986;46;20089;31
2022/06/27 02:21:52;;;;;;;5.60;4.70;;;20.50;99.90;;;;;;2683265;39;20369;31
2022/06/27 02:24:29;;;;;;;5.45;4.30;;;20.60;99.90;;;;;;2772804;31;20515;31
2022/06/27 02:27:01;;;;;;;10.70;5.20;;;20.50;99.90;;;;;;2585562;54;21123;31
2022/06/27 02:29:36;;;;;;;5.53;4.60;;;20.50;99.90;;;;;;2585414;54;20237;31
2022/06/27 02:32:08;;;;;;;8.10;4.67;;;20.50;99.90;;;;;;2683373;39;21081;31
2022/06/27 02:34:41;;;;;;;7.00;4.47;;;20.30;99.90;;;;;;2585842;54;22684;31
2022/06/27 02:37:13;;;;;;;5.55;4.55;;;20.20;99.90;;;;;;2585438;54;20255;31
2022/06/27 02:39:48;;;;;;;6.25;4.80;;;20.30;99.90;;;;;;2603912;46;22575;31
2022/06/27 02:42:21;;;;;;;5.22;4.63;;;20.20;99.90;;;;;;2585414;54;20897;31
2022/06/27 02:44:56;;;;;;;7.30;5.13;;;20.20;99.90;;;;;;2604060;46;22379;31
2022/06/27 02:47:32;;;;;;;;;;;20.20;99.90;;;;;;2585610;54;20026;31
2022/06/27 02:50:07;;;;;;;7.35;5.30;;;20.20;99.90;;;;;;2585612;54;19937;31
2022/06/27 02:52:47;;;;;;;7.85;5.32;;;20.10;99.90;;;;;;2585484;54;20365;31
2022/06/27 02:55:27;;;;;;;7.22;5.32;;;20.10;99.90;;;;;;2585428;54;20801;31
2022/06/27 02:58:04;;;;;;;4.68;4.25;;;20.00;99.90;;;;;;2603769;46;20926;31
2022/06/27 03:00:39;;;;;;;5.68;4.50;;;20.00;99.90;;;;;;2604154;46;20945;31
2022/06/27 03:03:14;;;;;;;9.33;5.77;;;20.00;99.90;;;;;;2585131;54;20869;31
2022/06/27 03:06:02;;;;;;;5.65;4.40;;;20.00;99.90;;;;;;2683422;39;21027;31
2022/06/27 03:08:42;;;;;;;9.73;5.27;;;20.00;99.90;;;;;;2585302;54;20023;31
2022/06/27 03:11:21;;;;;;;5.22;4.72;;;19.90;99.90;;;;;;2585335;54;20061;31
2022/06/27 03:13:54;;;;;;;4.85;4.35;;;20.00;99.90;;;;;;2585227;54;20958;31
2022/06/27 03:16:26;;;;;;;8.00;5.37;;;19.90;99.90;;;;;;2585479;54;20132;31
2022/06/27 03:19:03;;;;;;;9.10;5.33;;;19.90;99.90;;;;;;2701683;39;20596;31
2022/06/27 03:21:48;;;;;;;5.45;4.80;;;20.00;99.90;;;;;;2585239;54;20922;31
2022/06/27 03:24:23;;;;;;;6.67;5.13;;;20.00;99.90;;;;;;2585258;54;21014;31
2022/06/27 03:26:59;;;;;;;6.18;5.18;;;20.10;99.90;;;;;;2585195;54;20777;31
2022/06/27 03:29:33;;;;;;;7.07;4.97;;;20.20;99.90;;;;;;2585393;54;20026;31
2022/06/27 03:32:08;;;;;;;5.40;4.40;;;20.20;99.90;;;;;;2603757;46;22381;31
2022/06/27 03:34:42;;;;;;;6.15;4.95;;;20.30;99.90;;;;;;2585612;54;20925;31
2022/06/27 03:37:21;;;;;;;7.50;4.93;;;20.40;99.90;;;;;;2684007;39;21102;31
2022/06/27 03:39:56;;;;;;;4.90;4.15;;;20.50;99.90;;;;;;2586133;54;20049;31
2022/06/27 03:42:32;;;;;;;9.57;5.20;;;20.60;99.90;;;;;;2604894;46;20045;31
2022/06/27 03:45:05;;;;;;;6.72;4.72;;;20.70;99.90;;;;;;2683982;39;20373;31
2022/06/27 03:47:48;;;;;;;8.30;6.20;;;20.80;99.90;;;;;;2585837;54;20924;31
2022/06/27 03:50:37;;;;;;;6.53;5.10;;;20.90;99.90;;;;;;2586062;54;20050;31
2022/06/27 03:53:14;;;;;;;6.20;5.38;;;21.10;99.90;;;;;;2585842;54;20980;31
2022/06/27 03:55:48;;;;;;;7.40;5.25;;;21.30;99.90;;;;;;2585946;54;20847;31
2022/06/27 03:58:25;;;;;;;7.03;5.10;;;21.40;99.90;;;;;;2604502;46;20882;31
2022/06/27 04:00:58;;;;;;;9.45;4.78;;;21.50;99.90;;;;;;2604849;46;20049;31
2022/06/27 04:03:30;;;;;;;7.03;5.13;;;21.60;99.90;;;;;;2585221;54;21902;31
2022/06/27 04:06:08;;;;;;;8.50;5.75;;;21.80;99.90;;;;;;2585802;54;21095;31
2022/06/27 04:08:42;;;;;;;8.57;5.65;;;21.90;99.90;;;;;;2604059;46;20870;31
2022/06/27 04:11:16;;;;;;;8.25;4.95;;;21.90;99.90;;;;;;2585797;54;20022;31
2022/06/27 04:13:56;;;;;;;10.63;4.97;;;22.10;99.90;;;;;;2585895;54;20108;31
2022/06/27 04:16:48;;;;;;;10.32;5.28;;;22.30;99.90;;;;;;2586188;54;20077;31
2022/06/27 04:19:39;;;;;;;11.30;5.57;;;22.40;99.90;;;;;;2586026;54;20790;31
2022/06/27 04:22:25;;;;;;;7.18;5.57;;;22.60;99.90;;;;;;2585822;54;20023;31
2022/06/27 04:25:02;;;;;;;9.00;5.67;;;22.80;99.90;;;;;;2585875;54;20038;31
2022/06/27 04:27:46;;;;;;;8.50;5.25;;;22.90;99.90;;;;;;2585657;54;20329;31
2022/06/27 04:30:23;;;;;;;7.30;4.80;;;23.00;99.90;;;;;;2585855;54;20583;31
2022/06/27 04:32:57;;;;;;;9.32;5.45;;;23.20;99.90;;;;;;2586044;54;21903;31
2022/06/27 04:35:31;;;;;;;7.28;5.10;;;23.40;99.90;;;;;;2585739;54;20026;31
2022/06/27 04:38:04;;;;;;;9.27;5.83;;;23.50;99.90;;;;;;2586011;54;22401;31
2022/06/27 04:41:07;;;;;;;10.52;5.22;;;23.80;99.90;;;;;;2585359;54;21050;31
2022/06/27 04:43:43;;;;;;;10.50;5.40;;;23.80;99.90;;;;;;2683821;39;22453;31
2022/06/27 04:46:18;;;;;;;7.10;5.10;;;24.10;99.90;;;;;;2585965;54;21201;31
2022/06/27 04:49:22;;;;;;;7.82;5.43;;;24.30;99.90;;;;;;2585313;54;20239;31
2022/06/27 04:52:01;;;;;;;7.05;4.70;;;24.40;99.90;;;;;;2585701;54;20030;31
2022/06/27 04:54:34;;;;;;;7.37;5.17;;;24.60;99.90;;;;;;2603969;46;20881;31
2022/06/27 04:57:08;;;;;;;8.13;5.40;;;24.80;99.90;;;;;;2585800;54;20022;31
2022/06/27 04:59:41;;;;;;;8.13;4.67;;;24.90;99.90;;;;;;2604048;46;20093;31
2022/06/27 05:02:31;;;;;;;7.55;5.05;;;25.20;99.90;;;;;;2585836;54;20022;31
2022/06/27 05:05:04;;;;;;;9.77;5.20;;;25.30;99.90;;;;;;2585677;54;20819;31
2022/06/27 05:07:39;;;;;;;7.13;5.20;;;25.40;99.90;;;;;;2585514;54;20050;31
2022/06/27 05:10:14;;;;;;;9.50;5.63;;;25.60;99.90;;;;;;2585447;54;20032;31
2022/06/27 05:12:48;;;;;;;7.88;5.20;;;25.70;99.90;;;;;;2585568;54;20978;31
2022/06/27 05:15:21;;;;;;;9.40;4.50;;;25.90;99.90;;;;;;2585924;54;22402;31
2022/06/27 05:17:57;;;;;;;5.65;4.75;;;26.00;99.90;;;;;;2585653;54;21026;31
2022/06/27 05:20:30;;;;;;;6.83;4.73;;;26.20;99.90;;;;;;2604493;46;20966;31
2022/06/27 05:23:03;;;;;;;7.20;4.53;;;26.40;99.90;;;;;;2603796;46;20057;31
2022/06/27 05:25:38;;;;;;;8.65;4.80;;;26.50;99.90;;;;;;2585600;54;20949;31
2022/06/27 05:28:10;;;;;;;9.88;5.10;;;26.70;99.90;;;;;;2585614;54;21251;31
2022/06/27 05:30:41;;;;;;;6.47;4.40;;;26.90;99.90;;;;;;2683624;39;22326;31
2022/06/27 05:33:19;;;;;;;7.10;5.20;;;27.00;99.90;;;;;;2585426;54;20974;31
2022/06/27 05:35:52;;;;;;;6.95;4.35;;;27.10;99.90;;;;;;2585365;54;20940;31
2022/06/27 05:38:26;;;;;;;7.45;4.35;;;27.10;99.90;;;;;;2585372;54;20118;31
2022/06/27 05:41:00;;;;;;;10.07;5.15;;;27.20;99.90;;;;;;2585439;54;20871;31
2022/06/27 05:43:32;;;;;;;8.82;5.18;;;27.30;99.90;;;;;;2603836;46;21130;31
2022/06/27 05:46:06;;;;;;;7.13;4.57;;;27.50;99.90;;;;;;2585682;54;20089;31
2022/06/27 05:49:12;;;;;;;9.35;4.60;;;27.70;99.90;;;;;;2585076;54;20916;31
2022/06/27 05:51:54;;;;;;;11.65;4.90;;;27.90;99.90;;;;;;2683287;39;20396;31
2022/06/27 05:54:27;;;;;;;10.05;4.60;;;28.00;99.90;;;;;;2585363;54;21067;31
2022/06/27 05:57:00;;;;;;;8.60;4.65;;;28.10;99.90;;;;;;2585327;54;20955;31
2022/06/27 05:59:33;;;;;;;8.75;4.80;;;28.10;99.90;;;;;;2603936;46;20113;31
2022/06/27 06:02:06;;;;;;;8.80;4.70;;;28.10;99.90;;;;;;2585474;54;21130;31
2022/06/27 06:04:46;;;;;;;5.05;4.20;;;28.10;99.90;;;;;;2603704;46;20235;31
2022/06/27 06:07:22;;;;;;;8.43;5.00;;;28.10;99.90;;;;;;2585131;54;20136;31
2022/06/27 06:09:55;;;;;;;8.00;4.50;;;28.20;99.90;;;;;;2682835;39;21338;31
2022/06/27 06:12:29;;;;;;;13.33;5.30;;;28.30;99.90;;;;;;2585482;54;20026;31
2022/06/27 06:15:04;;;;;;;7.00;4.45;;;28.30;99.90;;;;;;2585167;54;20901;31
2022/06/27 06:17:37;;;;;;;;;;;28.30;99.90;;;;;;2585541;54;20030;31
2022/06/27 06:20:14;;;;;;;8.50;4.70;;;28.50;99.90;;;;;;2603919;46;19997;31
2022/06/27 06:22:47;;;;;;;6.45;4.15;;;28.80;99.90;;;;;;2585435;54;20030;31
2022/06/27 06:25:21;;;;;;;6.90;4.90;;;29.10;99.90;;;;;;2603693;46;20992;31
2022/06/27 06:27:56;;;;;;;6.60;4.60;;;29.20;99.90;;;;;;2603469;46;20933;31
2022/06/27 06:30:30;;;;;;;7.90;4.75;;;29.50;99.90;;;;;;2603983;46;20745;31
2022/06/27 06:33:09;;;;;;;10.43;4.70;;;29.40;99.90;;;;;;2585098;54;20030;31
2022/06/27 06:35:46;;;;;;;11.10;4.80;;;29.60;99.90;;;;;;2585142;54;21039;31
2022/06/27 06:38:19;;;;;;;8.80;4.65;;;29.80;99.90;;;;;;2585404;54;20023;31
2022/06/27 06:40:53;;;;;;;6.35;4.38;;;30.00;99.90;;;;;;2585039;54;20944;31
2022/06/27 06:43:29;;;;;;;7.07;4.57;;;30.20;99.50;;;;;;2585254;54;20761;31
2022/06/27 06:46:22;;;;;;;7.57;4.23;;;30.50;99.30;;;;;;2585472;54;20033;31
2022/06/27 06:49:11;;;;;;;7.70;4.93;;;30.70;98.80;;;;;;2585019;54;20085;31
2022/06/27 06:51:47;;;;;;;7.32;4.60;;;30.70;98.70;;;;;;2585157;54;20049;31
2022/06/27 06:54:20;;;;;;;10.35;4.60;;;30.90;98.50;;;;;;2585084;54;21064;31
2022/06/27 06:56:53;;;;;;;12.50;4.90;;;31.00;98.10;;;;;;2584960;54;20058;31
2022/06/27 06:59:26;;;;;;;5.82;4.45;;;31.10;97.70;;;;;;2585280;54;20797;31
2022/06/27 07:02:00;;;;;;;6.20;3.95;;;31.10;97.50;;;;;;2603717;46;20787;31
2022/06/27 07:04:33;;;;;;;4.90;4.40;;;31.20;97.60;;;;;;2603491;46;20054;31
2022/06/27 07:07:10;;;;;;;6.57;4.10;;;31.30;97.30;;;;;;2585136;54;20030;31
2022/06/27 07:09:43;;;;;;;5.68;4.60;;;31.40;97.20;;;;;;2584841;54;20030;31
2022/06/27 07:12:17;;;;;;;9.55;4.40;;;31.50;96.70;;;;;;2603585;46;20983;31
2022/06/27 07:14:51;;;;;;;4.65;4.18;;;31.60;96.50;;;;;;2585136;54;20033;31
2022/06/27 07:17:25;;;;;;;5.90;4.38;;;31.60;96.50;;;;;;2603948;46;20910;31
2022/06/27 07:19:58;;;;;;;4.65;3.88;;;31.80;96.30;;;;;;2603145;46;20965;31
2022/06/27 07:22:35;;;;;;;8.50;3.60;;;31.90;95.60;;;;;;2584830;54;20932;31
2022/06/27 07:25:09;;;;;;;7.83;4.00;;;32.00;95.20;;;;;;2585125;54;20026;31
2022/06/27 07:27:43;;;;;;;8.20;3.90;;;32.00;95.10;;;;;;2603708;46;21119;31
2022/06/27 07:30:16;;;;;;;6.43;3.92;;;32.10;95.10;;;;;;2584690;54;20046;31
2022/06/27 07:32:50;;;;;;;5.87;3.93;;;32.20;94.60;;;;;;2603736;47;20034;31
2022/06/27 07:35:23;;;;;;;5.47;4.17;;;32.10;94.20;;;;;;2603506;47;20860;31
2022/06/27 07:38:01;;;;;;;4.55;3.40;;;32.30;94.40;;;;;;2585141;54;20846;31
2022/06/27 07:40:37;;;;;;;7.35;3.50;;;32.40;93.70;;;;;;2585372;54;20022;31
2022/06/27 07:43:14;;;;;;;5.00;3.33;;;32.50;93.60;;;;;;2585203;54;20926;31
2022/06/27 07:45:48;;;;;;;10.35;4.00;;;32.60;93.80;;;;;;2585427;54;20026;31
2022/06/27 07:48:21;;;;;;;7.18;3.40;;;32.70;93.60;;;;;;2585153;54;21046;31
2022/06/27 07:50:55;;;;;;;7.63;3.72;;;33.00;93.50;;;;;;2584983;54;20089;31
2022/06/27 07:53:32;;;;;;;6.43;3.58;;;33.00;93.00;;;;;;2585164;54;20030;31
2022/06/27 07:56:07;;;;;;;5.68;3.55;;;32.90;93.10;;;;;;2585295;54;20967;31
2022/06/27 07:58:41;;;;;;;6.80;3.63;;;33.00;92.60;;;;;;2603687;47;20022;31
2022/06/27 08:01:18;;;;;;;7.07;3.45;;;33.10;92.90;;;;;;2604018;47;20939;31
2022/06/27 08:03:52;;;;;;;7.00;3.28;;;33.20;92.70;;;;;;2585393;54;20928;31
2022/06/27 08:06:26;;;;;;;7.03;3.30;;;33.30;92.50;;;;;;2585376;54;22547;31
2022/06/27 08:09:02;;;;;;;6.53;3.37;;;33.30;92.10;;;;;;2604055;47;20030;31
2022/06/27 08:11:35;;;;;;;5.65;3.00;;;33.60;91.70;;;;;;2754450;31;22661;31
2022/06/27 08:14:11;;;;;;;6.40;3.33;;;33.60;91.30;;;;;;2603774;47;20890;31
2022/06/27 08:16:41;;;;;;;;;;;33.60;90.70;;;;;;2585865;54;20027;31
2022/06/27 08:19:14;;;;;;;6.07;3.10;;;33.60;90.80;;;;;;2602951;47;20878;31
2022/06/27 08:21:47;;;;;;;6.45;3.30;;;33.60;90.80;;;;;;2586194;54;20032;31
2022/06/27 08:24:24;;;;;;;5.53;2.65;;;33.60;90.20;;;;;;2585942;54;20054;31
2022/06/27 08:26:57;;;;;;;5.40;3.30;;;33.50;90.20;;;;;;2586103;54;19934;31
2022/06/27 08:29:28;;;;;;;3.88;2.83;;;33.50;90.00;;;;;;2586167;54;19934;31
2022/06/27 08:32:02;;;;;;;4.60;2.90;;;33.40;90.00;;;;;;2585955;54;20089;31
2022/06/27 08:34:36;;;;;;;4.50;2.60;;;33.40;89.30;;;;;;2604990;46;20055;31
2022/06/27 08:37:10;;;;;;;6.15;2.90;;;33.60;88.80;;;;;;2586031;54;20960;31
2022/06/27 08:39:45;;;;;;;4.05;2.60;;;33.60;88.10;;;;;;2586155;54;20030;31
2022/06/27 08:42:18;;;;;;;6.63;3.07;;;33.70;87.20;;;;;;2585972;54;20030;31
2022/06/27 08:44:52;;;;;;;4.97;2.30;;;33.80;86.30;;;;;;2586112;54;21116;31
2022/06/27 08:47:27;;;;;;;5.80;2.45;;;33.80;84.80;;;;;;2604975;46;20915;31
2022/06/27 08:50:01;;;;;;;4.38;2.38;;;33.80;85.80;;;;;;2585990;54;20349;31
2022/06/27 08:52:35;;;;;;;3.73;2.33;;;33.80;85.10;;;;;;2586411;54;20909;31
2022/06/27 08:55:11;;;;;;;3.90;2.50;;;33.80;84.40;;;;;;2586077;54;21112;31
2022/06/27 08:57:45;;;;;;;5.20;2.63;;;33.80;83.60;;;;;;2598151;46;21136;31
2022/06/27 09:00:22;;;;;;;4.97;2.55;;;33.90;82.90;;;;;;2586677;46;20034;31
2022/06/27 09:02:56;;;;;;;6.43;2.47;;;34.00;82.90;;;;;;2586098;54;19957;31
2022/06/27 09:05:30;;;;;;;2.45;2.20;;;34.20;83.40;;;;;;2586139;54;20764;31
2022/06/27 09:08:04;;;;;;;4.68;2.20;;;34.30;83.10;;;;;;2586130;54;20022;31
2022/06/27 09:10:39;;;;;;;4.03;2.57;;;34.60;81.60;;;;;;2586132;54;20034;31
2022/06/27 09:13:12;;;;;;;5.97;2.57;;;34.80;83.40;;;;;;2586171;54;20115;31
2022/06/27 09:15:52;;;;;;;2.85;2.50;;;34.80;81.40;;;;;;2585896;54;20102;31
2022/06/27 09:18:27;;;;;;;4.70;2.70;;;34.90;80.30;;;;;;2604316;46;21109;31
2022/06/27 09:21:01;;;;;;;;;;;35.00;80.60;;;;;;2586211;54;20026;31
2022/06/27 09:23:47;;;;;;;3.75;2.30;;;35.20;79.00;;;;;;2604632;46;20815;31
2022/06/27 09:26:23;;;;;;;3.60;2.53;;;35.30;80.60;;;;;;2585794;54;20061;31
2022/06/27 09:28:55;;;;;;;2.92;2.20;;;35.40;81.00;;;;;;2586052;54;20052;31
2022/06/27 09:31:35;;;;;;;4.67;2.67;;;35.40;80.60;;;;;;2585517;54;20089;31
2022/06/27 09:34:16;;;;;;;5.15;2.50;;;35.60;81.80;;;;;;2586183;54;20887;31
2022/06/27 09:36:51;;;;;;;6.43;2.95;;;35.70;80.30;;;;;;2586099;54;20876;31
2022/06/27 09:39:28;;;;;;;2.97;2.40;;;35.80;80.30;;;;;;2586019;54;20946;31
2022/06/27 09:42:05;;;;;;;3.92;2.55;;;35.90;80.30;;;;;;2585591;54;20116;31
2022/06/27 09:44:38;;;;;;;7.07;2.60;;;35.90;79.30;;;;;;2585756;54;20895;31
2022/06/27 09:47:13;;;;;;;4.77;2.80;;;36.00;79.90;;;;;;2604191;46;20053;31
2022/06/27 09:49:47;;;;;;;4.93;2.67;;;36.00;77.20;;;;;;2585955;54;20030;31
2022/06/27 09:52:22;;;;;;;4.43;2.60;;;36.10;78.00;;;;;;2585760;54;20923;31
2022/06/27 09:54:55;;;;;;;2.80;2.10;;;36.30;77.60;;;;;;2604838;46;20022;31
2022/06/27 09:57:30;;;;;;;4.55;2.30;;;36.50;78.30;;;;;;2604282;46;20164;31
2022/06/27 10:00:03;;;;;;;3.67;2.60;;;36.40;77.00;;;;;;2586006;54;20792;31
2022/06/27 10:02:43;;;;;;;7.00;2.60;;;36.50;77.50;;;;;;2585874;54;21540;31
2022/06/27 10:05:17;;;;;;;3.35;2.90;;;36.40;74.30;;;;;;2604038;46;21158;31
2022/06/27 10:07:56;;;;;;;4.05;3.00;;;36.10;75.60;;;;;;2604037;46;20026;31
2022/06/27 10:10:27;;;;;;;3.80;2.37;;;36.10;76.90;;;;;;2604627;46;20109;31
2022/06/27 10:13:02;;;;;;;4.88;3.33;;;36.10;76.60;;;;;;2585736;54;21007;31
2022/06/27 10:15:35;;;;;;;3.95;2.80;;;36.20;75.60;;;;;;2586084;54;20031;31
2022/06/27 10:18:06;;;;;;;4.27;2.93;;;36.20;76.10;;;;;;2585988;54;20057;31
2022/06/27 10:20:42;;;;;;;4.60;3.00;;;36.30;75.80;;;;;;2585805;54;20783;31
2022/06/27 10:23:37;;;;;;;3.85;2.90;;;36.30;76.80;;;;;;2585906;54;20037;31
2022/06/27 10:26:11;;;;;;;4.90;3.45;;;36.30;76.50;;;;;;2585637;54;20035;31
2022/06/27 10:28:47;;;;;;;4.50;2.75;;;36.20;75.30;;;;;;2585916;54;20030;31
2022/06/27 10:31:20;;;;;;;4.80;3.05;;;36.10;76.50;;;;;;2585848;54;20034;31
2022/06/27 10:33:54;;;;;;;5.30;3.10;;;36.10;77.60;;;;;;2604019;46;21005;31
2022/06/27 10:36:25;;;;;;;7.30;3.00;;;36.00;76.50;;;;;;2585936;54;20640;31
2022/06/27 10:39:01;;;;;;;8.27;3.65;;;35.90;76.70;;;;;;2585810;54;20031;31
2022/06/27 10:41:40;;;;;;;3.75;3.10;;;35.70;74.60;;;;;;2586035;54;19935;31
2022/06/27 10:44:35;;;;;;;4.28;2.83;;;35.70;75.60;;;;;;2585756;54;20691;31
2022/06/27 10:47:36;;;;;;;3.80;3.10;;;35.60;74.40;;;;;;2585829;54;20029;31
2022/06/27 10:50:13;;;;;;;6.60;2.80;;;35.50;74.30;;;;;;2604388;46;20093;31
2022/06/27 10:52:48;;;;;;;6.18;3.17;;;35.50;74.20;;;;;;2585779;54;20072;31
2022/06/27 10:55:25;;;;;;;8.07;3.13;;;35.50;74.00;;;;;;2585721;54;20053;31
2022/06/27 10:57:58;;;;;;;4.22;3.22;;;35.40;73.80;;;;;;2585662;54;20076;31
2022/06/27 11:00:40;;;;;;;4.65;3.05;;;35.40;73.90;;;;;;2684035;39;22339;31
2022/06/27 11:03:13;;;;;;;3.80;3.23;;;35.50;73.50;;;;;;2604583;46;19934;31
2022/06/27 11:06:13;;;;;;;3.13;2.88;;;35.40;73.50;;;;;;2701718;39;22327;31
2022/06/27 11:08:48;;;;;;;3.50;3.20;;;35.30;73.80;;;;;;2585224;54;20897;31
2022/06/27 11:11:28;;;;;;;7.63;3.03;;;35.30;74.20;;;;;;2585573;54;20890;31
2022/06/27 11:13:59;;;;;;;4.25;3.20;;;35.30;74.30;;;;;;2604611;46;20928;31
2022/06/27 11:16:35;;;;;;;3.60;3.30;;;35.30;74.50;;;;;;2604088;46;20030;31
2022/06/27 11:20:04;;;;;;;6.90;3.17;;;35.40;74.40;;;;;;2603899;46;20258;31
2022/06/27 11:22:01;;;;;;;6.55;3.22;;;35.40;74.40;;;;;;2585631;54;20132;31
2022/06/27 11:24:35;;;;;;;4.10;2.87;;;35.40;75.10;;;;;;2585813;54;20034;31
2022/06/27 11:27:09;;;;;;;6.20;3.50;;;35.40;75.30;;;;;;2585519;54;20062;31
2022/06/27 11:32:34;;;;;;;7.60;3.20;;;35.30;75.10;;;;;;2585136;54;20939;31
2022/06/27 11:35:09;;;;;;;5.30;3.20;;;35.20;74.70;;;;;;2603832;47;20038;31
2022/06/27 11:37:42;;;;;;;5.40;3.38;;;35.30;75.40;;;;;;2604053;47;20230;31
2022/06/27 11:40:16;;;;;;;5.67;3.57;;;35.20;75.20;;;;;;2603927;47;20029;31
2022/06/27 11:42:50;;;;;;;4.40;3.40;;;35.20;75.60;;;;;;2603914;47;20038;31
2022/06/27 11:45:24;;;;;;;5.35;3.33;;;35.10;75.00;;;;;;2585630;54;20806;31
2022/06/27 11:48:00;;;;;;;4.43;2.90;;;35.00;75.80;;;;;;2585359;54;19934;31
2022/06/27 11:50:35;;;;;;;5.25;3.42;;;34.90;75.90;;;;;;2585430;54;21830;31
2022/06/27 11:53:07;;;;;;;4.75;3.30;;;34.90;75.70;;;;;;2585691;54;20780;31
2022/06/27 11:55:41;;;;;;;5.65;3.78;;;35.00;76.40;;;;;;2586208;54;20784;31
2022/06/27 11:58:15;;;;;;;5.50;3.70;;;34.90;76.30;;;;;;2604418;46;20977;31
2022/06/27 12:00:49;;;;;;;4.32;3.50;;;35.00;77.00;;;;;;2586395;54;21486;31
2022/06/27 12:03:25;;;;;;;8.15;3.95;;;35.00;76.50;;;;;;2604805;46;20921;31
2022/06/27 12:05:58;;;;;;;5.68;3.92;;;35.00;76.20;;;;;;2684331;39;22380;31
2022/06/27 12:08:30;;;;;;;8.73;4.35;;;35.00;76.60;;;;;;2684286;39;22144;31
2022/06/27 12:11:26;;;;;;;5.68;3.85;;;34.90;76.70;;;;;;2604654;46;20937;31
2022/06/27 12:14:01;;;;;;;4.97;3.95;;;35.00;77.40;;;;;;2605199;46;20053;31
2022/06/27 12:16:49;;;;;;;7.00;3.75;;;34.90;77.30;;;;;;2684547;39;22218;31
2022/06/27 12:19:32;;;;;;;5.30;3.80;;;34.90;77.40;;;;;;2586063;54;19989;31
2022/06/27 12:22:06;;;;;;;4.13;3.53;;;34.90;77.30;;;;;;2586456;54;20086;31
2022/06/27 12:24:59;;;;;;;6.72;4.00;;;34.70;77.00;;;;;;2586203;54;20238;31
2022/06/27 12:27:32;;;;;;;5.93;4.00;;;34.80;77.10;;;;;;2586184;54;20829;31
2022/06/27 12:30:04;;;;;;;5.30;3.77;;;34.80;80.10;;;;;;2586373;54;20022;31
2022/06/27 12:32:38;;;;;;;4.20;3.80;;;34.90;78.00;;;;;;2586038;54;21067;31
2022/06/27 12:35:15;;;;;;;4.03;3.63;;;34.80;77.40;;;;;;2604524;46;20022;31
2022/06/27 12:37:48;;;;;;;6.60;3.58;;;34.90;77.20;;;;;;2604606;46;20089;31
2022/06/27 12:40:19;;;;;;;6.13;3.65;;;34.90;76.60;;;;;;2604859;46;20029;31
2022/06/27 12:42:53;;;;;;;4.13;3.28;;;35.00;76.90;;;;;;2586125;54;20089;31
2022/06/27 12:45:27;;;;;;;4.60;3.37;;;35.00;76.00;;;;;;2586261;54;20037;31
2022/06/27 12:48:01;;;;;;;7.60;3.60;;;35.00;76.60;;;;;;2586228;54;20045;31
2022/06/27 12:50:38;;;;;;;6.43;3.53;;;35.00;76.60;;;;;;2604524;46;20959;31
2022/06/27 12:53:12;;;;;;;6.63;2.78;;;34.90;76.10;;;;;;2604805;46;20227;31
2022/06/27 12:55:46;;;;;;;4.50;2.60;;;34.90;74.90;;;;;;2586107;54;20907;31
2022/06/27 12:58:20;;;;;;;3.55;2.90;;;34.80;75.90;;;;;;2604569;46;20033;31
2022/06/27 13:00:53;;;;;;;6.85;2.75;;;34.80;75.60;;;;;;2586084;54;20109;31
2022/06/27 13:03:27;;;;;;;3.25;2.55;;;34.90;75.00;;;;;;2604494;46;20085;31
2022/06/27 13:06:03;;;;;;;3.28;2.40;;;34.80;75.50;;;;;;2586152;54;20937;31
2022/06/27 13:08:35;;;;;;;5.50;2.35;;;34.90;76.20;;;;;;2605109;46;20033;31
2022/06/27 13:11:09;;;;;;;5.00;2.37;;;35.00;75.10;;;;;;2604364;46;20052;31
2022/06/27 13:13:40;;;;;;;3.33;2.47;;;34.90;75.40;;;;;;2604859;46;20039;31
2022/06/27 13:16:15;;;;;;;4.22;2.67;;;34.80;75.20;;;;;;2604507;46;20081;31
2022/06/27 13:18:49;;;;;;;2.78;2.10;;;34.70;75.40;;;;;;2586218;54;20886;31
2022/06/27 13:21:22;;;;;;;6.43;2.20;;;34.70;76.10;;;;;;2586230;54;20023;31
2022/06/27 13:23:54;;;;;;;2.80;2.00;;;34.70;76.10;;;;;;2586164;54;20023;31
2022/06/27 13:26:44;;;;;;;4.68;2.80;;;34.70;76.60;;;;;;2604810;46;20261;31
2022/06/27 13:29:15;;;;;;;5.53;2.00;;;34.70;76.10;;;;;;2586175;54;20898;31
2022/06/27 13:31:51;;;;;;;2.40;1.97;;;34.80;76.40;;;;;;2683569;39;21329;31
2022/06/27 13:34:25;;;;;;;4.05;2.15;;;34.70;75.40;;;;;;2585981;54;20035;31
2022/06/27 13:37:20;;;;;;;2.60;2.10;;;34.80;75.90;;;;;;2585755;54;20875;31
2022/06/27 13:39:52;;;;;;;3.55;2.20;;;34.80;76.20;;;;;;2604984;46;20050;31
2022/06/27 13:42:26;;;;;;;3.20;1.90;;;34.80;76.40;;;;;;2586025;54;21281;31
2022/06/27 13:45:00;;;;;;;3.75;1.90;;;34.80;76.00;;;;;;2604170;46;20501;31